sensor_id;sensor_type;location;lat;lon;timestamp;temperature;humidity
3281;DHT22;1652;51.31805600;6.20194400;2024-02-26T00:02:03;7.00;40.00
3281;DHT22;1652;51.31805600;6.20194400;2024-02-26T00:04:28;7.00;26.30
3281;DHT22;1652;51.31805600;6.20194400;2024-02-26T00:06:54;7.00;30.80
3281;DHT22;1652;51.31805600;6.20194400;2024-02-26T00:09:21;7.00;24.30
3281;DHT22;1652;51.31805600;6.20194400;2024-02-26T00:11:47;7.00;20.90
3281;DHT22;1652;51.31805600;6.20194400;2024-02-26T00:14:13;7.00;24.90
3281;DHT22;1652;51.31805600;6.20194400;2024-02-26T00:16:42;7.00;45.80
3281;DHT22;1652;51.31805600;6.20194400;2024-02-26T00:19:10;7.00;32.30
3281;DHT22;1652;51.31805600;6.20194400;2024-02-26T00:21:43;7.00;65.50
3281;DHT22;1652;51.31805600;6.20194400;2024-02-26T00:24:25;7.00;98.20
3281;DHT22;1652;51.31805600;6.20194400;2024-02-26T00:26:55;7.00;99.90
3281;DHT22;1652;51.31805600;6.20194400;2024-02-26T00:32:30;6.90;99.90
3281;DHT22;1652;51.31805600;6.20194400;2024-02-26T00:35:03;6.90;99.90
3281;DHT22;1652;51.31805600;6.20194400;2024-02-26T00:43:50;6.80;99.90
3281;DHT22;1652;51.31805600;6.20194400;2024-02-26T00:46:21;6.70;1.00
3281;DHT22;1652;51.31805600;6.20194400;2024-02-26T00:48:58;6.70;1.00
3281;DHT22;1652;51.31805600;6.20194400;2024-02-26T00:51:31;6.50;1.00
3281;DHT22;1652;51.31805600;6.20194400;2024-02-26T00:54:00;6.50;1.00
3281;DHT22;1652;51.31805600;6.20194400;2024-02-26T00:56:42;6.50;1.00
3281;DHT22;1652;51.31805600;6.20194400;2024-02-26T00:59:09;6.40;1.00
3281;DHT22;1652;51.31805600;6.20194400;2024-02-26T01:01:36;6.40;1.00
3281;DHT22;1652;51.31805600;6.20194400;2024-02-26T01:04:03;6.30;60.90
3281;DHT22;1652;51.31805600;6.20194400;2024-02-26T01:06:30;6.30;99.90
3281;DHT22;1652;51.31805600;6.20194400;2024-02-26T01:08:58;6.30;99.90
3281;DHT22;1652;51.31805600;6.20194400;2024-02-26T01:11:24;6.20;99.90
3281;DHT22;1652;51.31805600;6.20194400;2024-02-26T01:13:51;6.20;99.90
3281;DHT22;1652;51.31805600;6.20194400;2024-02-26T01:16:23;6.20;99.90
3281;DHT22;1652;51.31805600;6.20194400;2024-02-26T01:18:50;6.10;99.90
3281;DHT22;1652;51.31805600;6.20194400;2024-02-26T01:21:17;6.10;99.90
3281;DHT22;1652;51.31805600;6.20194400;2024-02-26T01:23:44;6.20;99.90
3281;DHT22;1652;51.31805600;6.20194400;2024-02-26T01:26:11;6.10;99.90
3281;DHT22;1652;51.31805600;6.20194400;2024-02-26T01:28:38;6.10;99.90
3281;DHT22;1652;51.31805600;6.20194400;2024-02-26T01:31:05;6.10;1.00
3281;DHT22;1652;51.31805600;6.20194400;2024-02-26T01:33:34;6.10;1.00
3281;DHT22;1652;51.31805600;6.20194400;2024-02-26T01:36:01;6.00;1.00
3281;DHT22;1652;51.31805600;6.20194400;2024-02-26T01:38:28;6.00;1.00
3281;DHT22;1652;51.31805600;6.20194400;2024-02-26T01:40:55;5.90;1.00
3281;DHT22;1652;51.31805600;6.20194400;2024-02-26T01:43:22;5.90;1.00
3281;DHT22;1652;51.31805600;6.20194400;2024-02-26T01:45:49;5.90;1.00
3281;DHT22;1652;51.31805600;6.20194400;2024-02-26T01:48:16;5.90;1.00
3281;DHT22;1652;51.31805600;6.20194400;2024-02-26T01:50:43;5.90;1.00
3281;DHT22;1652;51.31805600;6.20194400;2024-02-26T01:53:10;5.90;1.00
3281;DHT22;1652;51.31805600;6.20194400;2024-02-26T01:55:37;5.90;1.00
3281;DHT22;1652;51.31805600;6.20194400;2024-02-26T01:58:05;5.90;1.00
3281;DHT22;1652;51.31805600;6.20194400;2024-02-26T02:00:32;5.90;1.00
3281;DHT22;1652;51.31805600;6.20194400;2024-02-26T02:03:01;5.80;25.50
3281;DHT22;1652;51.31805600;6.20194400;2024-02-26T02:05:29;5.90;52.60
3281;DHT22;1652;51.31805600;6.20194400;2024-02-26T02:07:56;5.80;69.20
3281;DHT22;1652;51.31805600;6.20194400;2024-02-26T02:10:24;5.80;99.90
3281;DHT22;1652;51.31805600;6.20194400;2024-02-26T02:12:52;5.80;99.90
3281;DHT22;1652;51.31805600;6.20194400;2024-02-26T02:15:20;5.70;99.90
3281;DHT22;1652;51.31805600;6.20194400;2024-02-26T02:17:47;5.70;99.90
3281;DHT22;1652;51.31805600;6.20194400;2024-02-26T02:20:18;5.70;99.90
3281;DHT22;1652;51.31805600;6.20194400;2024-02-26T02:22:46;5.60;99.90
3281;DHT22;1652;51.31805600;6.20194400;2024-02-26T02:25:13;5.60;99.90
3281;DHT22;1652;51.31805600;6.20194400;2024-02-26T02:27:41;5.60;99.90
3281;DHT22;1652;51.31805600;6.20194400;2024-02-26T02:30:09;5.60;99.90
3281;DHT22;1652;51.31805600;6.20194400;2024-02-26T02:32:39;5.60;99.90
3281;DHT22;1652;51.31805600;6.20194400;2024-02-26T02:35:08;5.60;99.90
3281;DHT22;1652;51.31805600;6.20194400;2024-02-26T02:37:35;5.60;99.90
3281;DHT22;1652;51.31805600;6.20194400;2024-02-26T02:40:04;5.60;99.90
3281;DHT22;1652;51.31805600;6.20194400;2024-02-26T02:42:31;5.60;99.90
3281;DHT22;1652;51.31805600;6.20194400;2024-02-26T02:44:58;5.60;99.90
3281;DHT22;1652;51.31805600;6.20194400;2024-02-26T02:47:25;5.50;99.90
3281;DHT22;1652;51.31805600;6.20194400;2024-02-26T02:49:52;5.50;99.90
3281;DHT22;1652;51.31805600;6.20194400;2024-02-26T02:52:19;5.50;99.90
3281;DHT22;1652;51.31805600;6.20194400;2024-02-26T02:54:46;5.50;99.90
3281;DHT22;1652;51.31805600;6.20194400;2024-02-26T02:57:13;5.50;99.90
3281;DHT22;1652;51.31805600;6.20194400;2024-02-26T02:59:40;5.50;99.90
3281;DHT22;1652;51.31805600;6.20194400;2024-02-26T03:02:07;5.50;1.00
3281;DHT22;1652;51.31805600;6.20194400;2024-02-26T03:04:34;5.50;1.00
3281;DHT22;1652;51.31805600;6.20194400;2024-02-26T03:07:01;5.50;1.00
3281;DHT22;1652;51.31805600;6.20194400;2024-02-26T03:09:28;5.50;1.00
3281;DHT22;1652;51.31805600;6.20194400;2024-02-26T03:11:56;5.50;1.00
3281;DHT22;1652;51.31805600;6.20194400;2024-02-26T03:14:23;5.50;1.00
3281;DHT22;1652;51.31805600;6.20194400;2024-02-26T03:16:53;5.50;1.00
3281;DHT22;1652;51.31805600;6.20194400;2024-02-26T03:19:21;5.50;1.00
3281;DHT22;1652;51.31805600;6.20194400;2024-02-26T03:21:48;5.40;1.00
3281;DHT22;1652;51.31805600;6.20194400;2024-02-26T03:24:15;5.40;1.00
3281;DHT22;1652;51.31805600;6.20194400;2024-02-26T03:26:42;5.40;1.00
3281;DHT22;1652;51.31805600;6.20194400;2024-02-26T03:29:09;5.40;1.00
3281;DHT22;1652;51.31805600;6.20194400;2024-02-26T03:31:36;5.40;1.00
3281;DHT22;1652;51.31805600;6.20194400;2024-02-26T03:34:03;5.40;1.00
3281;DHT22;1652;51.31805600;6.20194400;2024-02-26T03:36:30;5.40;1.00
3281;DHT22;1652;51.31805600;6.20194400;2024-02-26T03:38:57;5.40;1.00
3281;DHT22;1652;51.31805600;6.20194400;2024-02-26T03:41:24;5.40;1.00
3281;DHT22;1652;51.31805600;6.20194400;2024-02-26T03:43:50;5.40;1.00
3281;DHT22;1652;51.31805600;6.20194400;2024-02-26T03:46:17;5.40;1.00
3281;DHT22;1652;51.31805600;6.20194400;2024-02-26T03:48:44;5.40;1.00
3281;DHT22;1652;51.31805600;6.20194400;2024-02-26T03:51:11;5.40;1.00
3281;DHT22;1652;51.31805600;6.20194400;2024-02-26T03:53:38;5.40;1.00
3281;DHT22;1652;51.31805600;6.20194400;2024-02-26T03:56:06;5.40;1.00
3281;DHT22;1652;51.31805600;6.20194400;2024-02-26T03:58:33;5.40;1.00
3281;DHT22;1652;51.31805600;6.20194400;2024-02-26T04:01:00;5.40;1.00
3281;DHT22;1652;51.31805600;6.20194400;2024-02-26T04:03:27;5.40;1.00
3281;DHT22;1652;51.31805600;6.20194400;2024-02-26T04:05:54;5.40;1.00
3281;DHT22;1652;51.31805600;6.20194400;2024-02-26T04:08:21;5.40;1.00
3281;DHT22;1652;51.31805600;6.20194400;2024-02-26T04:10:49;5.40;1.00
3281;DHT22;1652;51.31805600;6.20194400;2024-02-26T04:13:17;5.40;1.00
3281;DHT22;1652;51.31805600;6.20194400;2024-02-26T04:15:44;5.40;1.00
3281;DHT22;1652;51.31805600;6.20194400;2024-02-26T04:18:11;5.40;1.00
3281;DHT22;1652;51.31805600;6.20194400;2024-02-26T04:20:38;5.40;1.00
3281;DHT22;1652;51.31805600;6.20194400;2024-02-26T04:23:05;5.40;1.00
3281;DHT22;1652;51.31805600;6.20194400;2024-02-26T04:25:32;5.40;1.00
3281;DHT22;1652;51.31805600;6.20194400;2024-02-26T04:27:59;5.40;1.00
3281;DHT22;1652;51.31805600;6.20194400;2024-02-26T04:30:26;5.40;1.00
3281;DHT22;1652;51.31805600;6.20194400;2024-02-26T04:32:53;5.30;1.00
3281;DHT22;1652;51.31805600;6.20194400;2024-02-26T04:35:20;5.40;1.00
3281;DHT22;1652;51.31805600;6.20194400;2024-02-26T04:37:47;5.40;1.00
3281;DHT22;1652;51.31805600;6.20194400;2024-02-26T04:40:13;5.40;1.00
3281;DHT22;1652;51.31805600;6.20194400;2024-02-26T04:42:40;5.40;1.00
3281;DHT22;1652;51.31805600;6.20194400;2024-02-26T04:45:07;5.40;1.00
3281;DHT22;1652;51.31805600;6.20194400;2024-02-26T04:47:38;5.40;1.00
3281;DHT22;1652;51.31805600;6.20194400;2024-02-26T04:50:05;5.30;1.00
3281;DHT22;1652;51.31805600;6.20194400;2024-02-26T04:52:32;5.30;1.00
3281;DHT22;1652;51.31805600;6.20194400;2024-02-26T04:54:59;5.30;1.00
3281;DHT22;1652;51.31805600;6.20194400;2024-02-26T04:57:33;5.20;1.00
3281;DHT22;1652;51.31805600;6.20194400;2024-02-26T05:00:00;5.20;1.00
3281;DHT22;1652;51.31805600;6.20194400;2024-02-26T05:02:27;5.20;1.00
3281;DHT22;1652;51.31805600;6.20194400;2024-02-26T05:04:54;5.20;1.00
3281;DHT22;1652;51.31805600;6.20194400;2024-02-26T05:07:21;5.20;1.00
3281;DHT22;1652;51.31805600;6.20194400;2024-02-26T05:09:48;5.10;1.00
3281;DHT22;1652;51.31805600;6.20194400;2024-02-26T05:12:16;5.20;1.00
3281;DHT22;1652;51.31805600;6.20194400;2024-02-26T05:14:43;5.10;1.00
3281;DHT22;1652;51.31805600;6.20194400;2024-02-26T05:17:10;5.10;1.00
3281;DHT22;1652;51.31805600;6.20194400;2024-02-26T05:19:37;5.10;1.00
3281;DHT22;1652;51.31805600;6.20194400;2024-02-26T05:22:07;5.10;1.00
3281;DHT22;1652;51.31805600;6.20194400;2024-02-26T05:24:34;5.10;24.90
3281;DHT22;1652;51.31805600;6.20194400;2024-02-26T05:27:00;5.10;31.10
3281;DHT22;1652;51.31805600;6.20194400;2024-02-26T05:29:27;5.00;36.50
3281;DHT22;1652;51.31805600;6.20194400;2024-02-26T05:31:54;5.00;32.70
3281;DHT22;1652;51.31805600;6.20194400;2024-02-26T05:34:21;5.00;58.00
3281;DHT22;1652;51.31805600;6.20194400;2024-02-26T05:36:49;5.00;72.30
3281;DHT22;1652;51.31805600;6.20194400;2024-02-26T05:39:16;5.10;85.70
3281;DHT22;1652;51.31805600;6.20194400;2024-02-26T05:41:46;5.10;91.20
3281;DHT22;1652;51.31805600;6.20194400;2024-02-26T05:44:13;5.10;99.90
3281;DHT22;1652;51.31805600;6.20194400;2024-02-26T05:46:41;5.10;92.60
3281;DHT22;1652;51.31805600;6.20194400;2024-02-26T05:49:08;5.00;99.90
3281;DHT22;1652;51.31805600;6.20194400;2024-02-26T05:51:36;5.10;99.90
3281;DHT22;1652;51.31805600;6.20194400;2024-02-26T05:54:02;5.10;90.30
3281;DHT22;1652;51.31805600;6.20194400;2024-02-26T05:56:29;5.00;99.90
3281;DHT22;1652;51.31805600;6.20194400;2024-02-26T05:58:56;5.10;99.90
3281;DHT22;1652;51.31805600;6.20194400;2024-02-26T06:01:23;5.10;99.90
3281;DHT22;1652;51.31805600;6.20194400;2024-02-26T06:03:51;5.10;99.90
3281;DHT22;1652;51.31805600;6.20194400;2024-02-26T06:06:45;5.10;99.90
3281;DHT22;1652;51.31805600;6.20194400;2024-02-26T06:10:10;5.10;99.90
3281;DHT22;1652;51.31805600;6.20194400;2024-02-26T06:12:57;5.10;99.90
3281;DHT22;1652;51.31805600;6.20194400;2024-02-26T06:16:16;5.10;99.90
3281;DHT22;1652;51.31805600;6.20194400;2024-02-26T06:18:58;5.00;99.90
3281;DHT22;1652;51.31805600;6.20194400;2024-02-26T06:21:27;5.00;99.90
3281;DHT22;1652;51.31805600;6.20194400;2024-02-26T06:23:54;5.00;99.90
3281;DHT22;1652;51.31805600;6.20194400;2024-02-26T06:26:21;5.00;99.90
3281;DHT22;1652;51.31805600;6.20194400;2024-02-26T06:28:48;5.00;99.90
3281;DHT22;1652;51.31805600;6.20194400;2024-02-26T06:31:15;5.00;99.90
3281;DHT22;1652;51.31805600;6.20194400;2024-02-26T06:33:42;5.00;99.90
3281;DHT22;1652;51.31805600;6.20194400;2024-02-26T06:36:09;5.10;99.90
3281;DHT22;1652;51.31805600;6.20194400;2024-02-26T06:38:36;5.10;99.90
3281;DHT22;1652;51.31805600;6.20194400;2024-02-26T06:41:03;5.10;99.90
3281;DHT22;1652;51.31805600;6.20194400;2024-02-26T06:43:30;5.10;99.90
3281;DHT22;1652;51.31805600;6.20194400;2024-02-26T06:45:59;5.10;99.90
3281;DHT22;1652;51.31805600;6.20194400;2024-02-26T06:48:26;5.10;99.90
3281;DHT22;1652;51.31805600;6.20194400;2024-02-26T06:50:53;5.10;99.90
3281;DHT22;1652;51.31805600;6.20194400;2024-02-26T06:53:20;5.00;99.90
3281;DHT22;1652;51.31805600;6.20194400;2024-02-26T06:55:47;5.00;99.90
3281;DHT22;1652;51.31805600;6.20194400;2024-02-26T06:58:16;5.00;99.90
3281;DHT22;1652;51.31805600;6.20194400;2024-02-26T07:00:43;5.10;99.90
3281;DHT22;1652;51.31805600;6.20194400;2024-02-26T07:03:10;5.10;99.90
3281;DHT22;1652;51.31805600;6.20194400;2024-02-26T07:05:37;5.00;99.90
3281;DHT22;1652;51.31805600;6.20194400;2024-02-26T07:08:04;5.00;99.90
3281;DHT22;1652;51.31805600;6.20194400;2024-02-26T07:10:31;5.00;99.90
3281;DHT22;1652;51.31805600;6.20194400;2024-02-26T07:12:58;4.90;99.90
3281;DHT22;1652;51.31805600;6.20194400;2024-02-26T07:15:25;5.00;99.90
3281;DHT22;1652;51.31805600;6.20194400;2024-02-26T07:17:52;5.00;99.90
3281;DHT22;1652;51.31805600;6.20194400;2024-02-26T07:20:19;5.00;99.90
3281;DHT22;1652;51.31805600;6.20194400;2024-02-26T07:22:46;5.00;99.90
3281;DHT22;1652;51.31805600;6.20194400;2024-02-26T07:25:13;5.00;99.90
3281;DHT22;1652;51.31805600;6.20194400;2024-02-26T07:27:40;5.00;99.90
3281;DHT22;1652;51.31805600;6.20194400;2024-02-26T07:30:07;5.00;99.90
3281;DHT22;1652;51.31805600;6.20194400;2024-02-26T07:32:37;5.00;99.90
3281;DHT22;1652;51.31805600;6.20194400;2024-02-26T07:35:04;5.00;99.90
3281;DHT22;1652;51.31805600;6.20194400;2024-02-26T07:37:32;5.00;99.90
3281;DHT22;1652;51.31805600;6.20194400;2024-02-26T07:39:59;5.10;99.90
3281;DHT22;1652;51.31805600;6.20194400;2024-02-26T07:42:26;5.10;99.90
3281;DHT22;1652;51.31805600;6.20194400;2024-02-26T07:44:53;5.10;99.90
3281;DHT22;1652;51.31805600;6.20194400;2024-02-26T07:47:20;5.10;99.90
3281;DHT22;1652;51.31805600;6.20194400;2024-02-26T07:49:47;5.10;99.90
3281;DHT22;1652;51.31805600;6.20194400;2024-02-26T07:52:14;5.10;99.90
3281;DHT22;1652;51.31805600;6.20194400;2024-02-26T07:54:41;5.10;99.90
3281;DHT22;1652;51.31805600;6.20194400;2024-02-26T07:57:08;5.10;99.90
3281;DHT22;1652;51.31805600;6.20194400;2024-02-26T07:59:35;5.20;99.90
3281;DHT22;1652;51.31805600;6.20194400;2024-02-26T08:02:02;5.20;99.90
3281;DHT22;1652;51.31805600;6.20194400;2024-02-26T08:04:30;5.20;99.90
3281;DHT22;1652;51.31805600;6.20194400;2024-02-26T08:06:57;5.20;99.90
3281;DHT22;1652;51.31805600;6.20194400;2024-02-26T08:09:25;5.20;99.90
3281;DHT22;1652;51.31805600;6.20194400;2024-02-26T08:11:52;5.20;99.90
3281;DHT22;1652;51.31805600;6.20194400;2024-02-26T08:14:18;5.20;99.90
3281;DHT22;1652;51.31805600;6.20194400;2024-02-26T08:16:45;5.20;99.90
3281;DHT22;1652;51.31805600;6.20194400;2024-02-26T08:19:12;5.30;99.90
3281;DHT22;1652;51.31805600;6.20194400;2024-02-26T08:21:42;5.30;99.90
3281;DHT22;1652;51.31805600;6.20194400;2024-02-26T08:24:09;5.30;99.90
3281;DHT22;1652;51.31805600;6.20194400;2024-02-26T08:26:36;5.30;99.90
3281;DHT22;1652;51.31805600;6.20194400;2024-02-26T08:29:03;5.30;99.90
3281;DHT22;1652;51.31805600;6.20194400;2024-02-26T08:31:30;5.40;99.90
3281;DHT22;1652;51.31805600;6.20194400;2024-02-26T08:33:57;5.40;99.90
3281;DHT22;1652;51.31805600;6.20194400;2024-02-26T08:36:25;5.30;99.90
3281;DHT22;1652;51.31805600;6.20194400;2024-02-26T08:38:52;5.30;99.90
3281;DHT22;1652;51.31805600;6.20194400;2024-02-26T08:41:19;5.30;99.90
3281;DHT22;1652;51.31805600;6.20194400;2024-02-26T08:43:46;5.30;99.90
3281;DHT22;1652;51.31805600;6.20194400;2024-02-26T08:46:13;5.30;99.90
3281;DHT22;1652;51.31805600;6.20194400;2024-02-26T08:48:40;5.40;99.90
3281;DHT22;1652;51.31805600;6.20194400;2024-02-26T08:51:08;5.40;99.90
3281;DHT22;1652;51.31805600;6.20194400;2024-02-26T08:53:38;5.40;99.90
3281;DHT22;1652;51.31805600;6.20194400;2024-02-26T08:56:10;5.40;99.90
3281;DHT22;1652;51.31805600;6.20194400;2024-02-26T08:58:44;5.40;99.90
3281;DHT22;1652;51.31805600;6.20194400;2024-02-26T09:01:13;5.40;99.90
3281;DHT22;1652;51.31805600;6.20194400;2024-02-26T09:03:40;5.40;99.90
3281;DHT22;1652;51.31805600;6.20194400;2024-02-26T09:06:07;5.40;99.90
3281;DHT22;1652;51.31805600;6.20194400;2024-02-26T09:08:34;5.30;99.90
3281;DHT22;1652;51.31805600;6.20194400;2024-02-26T09:11:03;5.40;99.90
3281;DHT22;1652;51.31805600;6.20194400;2024-02-26T09:13:30;5.40;99.90
3281;DHT22;1652;51.31805600;6.20194400;2024-02-26T09:15:57;5.40;99.90
3281;DHT22;1652;51.31805600;6.20194400;2024-02-26T09:18:25;5.30;99.90
3281;DHT22;1652;51.31805600;6.20194400;2024-02-26T09:20:52;5.30;99.90
3281;DHT22;1652;51.31805600;6.20194400;2024-02-26T09:23:19;5.30;99.90
3281;DHT22;1652;51.31805600;6.20194400;2024-02-26T09:25:46;5.40;99.90
3281;DHT22;1652;51.31805600;6.20194400;2024-02-26T09:28:13;5.40;99.90
3281;DHT22;1652;51.31805600;6.20194400;2024-02-26T09:30:43;5.40;99.90
3281;DHT22;1652;51.31805600;6.20194400;2024-02-26T09:33:09;5.40;99.90
3281;DHT22;1652;51.31805600;6.20194400;2024-02-26T09:35:36;5.40;99.90
3281;DHT22;1652;51.31805600;6.20194400;2024-02-26T09:38:03;5.40;99.90
3281;DHT22;1652;51.31805600;6.20194400;2024-02-26T09:40:33;5.40;99.90
3281;DHT22;1652;51.31805600;6.20194400;2024-02-26T09:43:00;5.30;99.90
3281;DHT22;1652;51.31805600;6.20194400;2024-02-26T09:45:30;5.30;99.90
3281;DHT22;1652;51.31805600;6.20194400;2024-02-26T09:48:00;5.40;99.90
3281;DHT22;1652;51.31805600;6.20194400;2024-02-26T09:50:29;5.30;99.90
3281;DHT22;1652;51.31805600;6.20194400;2024-02-26T09:52:56;5.40;99.90
3281;DHT22;1652;51.31805600;6.20194400;2024-02-26T09:55:30;5.40;99.90
3281;DHT22;1652;51.31805600;6.20194400;2024-02-26T09:58:29;5.40;99.90
3281;DHT22;1652;51.31805600;6.20194400;2024-02-26T10:00:57;5.30;99.90
3281;DHT22;1652;51.31805600;6.20194400;2024-02-26T10:03:28;5.30;99.90
3281;DHT22;1652;51.31805600;6.20194400;2024-02-26T10:06:00;5.30;99.90
3281;DHT22;1652;51.31805600;6.20194400;2024-02-26T10:08:50;5.30;99.90
3281;DHT22;1652;51.31805600;6.20194400;2024-02-26T10:11:18;5.40;99.90
3281;DHT22;1652;51.31805600;6.20194400;2024-02-26T10:13:45;5.30;99.90
3281;DHT22;1652;51.31805600;6.20194400;2024-02-26T10:16:11;5.40;99.90
3281;DHT22;1652;51.31805600;6.20194400;2024-02-26T10:18:52;5.40;99.90
3281;DHT22;1652;51.31805600;6.20194400;2024-02-26T10:21:26;5.40;99.90
3281;DHT22;1652;51.31805600;6.20194400;2024-02-26T10:24:13;5.30;99.90
3281;DHT22;1652;51.31805600;6.20194400;2024-02-26T10:26:46;5.30;99.90
3281;DHT22;1652;51.31805600;6.20194400;2024-02-26T10:29:16;5.30;99.90
3281;DHT22;1652;51.31805600;6.20194400;2024-02-26T10:31:58;5.40;99.90
3281;DHT22;1652;51.31805600;6.20194400;2024-02-26T10:34:31;5.30;99.90
3281;DHT22;1652;51.31805600;6.20194400;2024-02-26T10:37:02;5.40;99.90
3281;DHT22;1652;51.31805600;6.20194400;2024-02-26T10:39:35;5.40;99.90
3281;DHT22;1652;51.31805600;6.20194400;2024-02-26T10:42:02;5.50;99.90
3281;DHT22;1652;51.31805600;6.20194400;2024-02-26T10:44:36;5.40;99.90
3281;DHT22;1652;51.31805600;6.20194400;2024-02-26T10:47:03;5.40;99.90
3281;DHT22;1652;51.31805600;6.20194400;2024-02-26T10:49:32;5.40;99.90
3281;DHT22;1652;51.31805600;6.20194400;2024-02-26T10:52:04;5.40;99.90
3281;DHT22;1652;51.31805600;6.20194400;2024-02-26T10:54:36;5.50;99.90
3281;DHT22;1652;51.31805600;6.20194400;2024-02-26T10:57:20;5.50;99.90
3281;DHT22;1652;51.31805600;6.20194400;2024-02-26T10:59:53;5.50;99.90
3281;DHT22;1652;51.31805600;6.20194400;2024-02-26T11:02:21;5.50;99.90
3281;DHT22;1652;51.31805600;6.20194400;2024-02-26T11:04:48;5.60;99.90
3281;DHT22;1652;51.31805600;6.20194400;2024-02-26T11:07:17;5.50;99.90
3281;DHT22;1652;51.31805600;6.20194400;2024-02-26T11:09:45;5.60;99.90
3281;DHT22;1652;51.31805600;6.20194400;2024-02-26T11:12:19;5.70;99.90
3281;DHT22;1652;51.31805600;6.20194400;2024-02-26T11:14:52;5.60;99.90
3281;DHT22;1652;51.31805600;6.20194400;2024-02-26T11:17:28;5.60;99.90
3281;DHT22;1652;51.31805600;6.20194400;2024-02-26T11:19:59;5.50;99.90
3281;DHT22;1652;51.31805600;6.20194400;2024-02-26T11:22:26;5.60;99.90
3281;DHT22;1652;51.31805600;6.20194400;2024-02-26T11:24:54;5.60;99.90
3281;DHT22;1652;51.31805600;6.20194400;2024-02-26T11:27:28;5.60;99.90
3281;DHT22;1652;51.31805600;6.20194400;2024-02-26T11:34:17;5.70;99.90
3281;DHT22;1652;51.31805600;6.20194400;2024-02-26T11:37:14;5.60;99.90
3281;DHT22;1652;51.31805600;6.20194400;2024-02-26T11:39:42;5.70;99.90
3281;DHT22;1652;51.31805600;6.20194400;2024-02-26T11:42:14;5.60;99.90
3281;DHT22;1652;51.31805600;6.20194400;2024-02-26T11:44:42;5.60;99.90
3281;DHT22;1652;51.31805600;6.20194400;2024-02-26T11:47:22;5.50;99.90
3281;DHT22;1652;51.31805600;6.20194400;2024-02-26T11:49:49;5.60;99.90
3281;DHT22;1652;51.31805600;6.20194400;2024-02-26T11:52:17;5.60;99.90
3281;DHT22;1652;51.31805600;6.20194400;2024-02-26T11:57:38;5.60;99.90
3281;DHT22;1652;51.31805600;6.20194400;2024-02-26T12:00:13;5.60;99.90
3281;DHT22;1652;51.31805600;6.20194400;2024-02-26T12:02:45;5.70;99.90
3281;DHT22;1652;51.31805600;6.20194400;2024-02-26T12:05:17;5.80;99.90
3281;DHT22;1652;51.31805600;6.20194400;2024-02-26T12:07:49;5.80;99.90
3281;DHT22;1652;51.31805600;6.20194400;2024-02-26T12:13:18;5.90;99.90
3281;DHT22;1652;51.31805600;6.20194400;2024-02-26T12:16:44;6.00;99.90
3281;DHT22;1652;51.31805600;6.20194400;2024-02-26T12:19:45;6.00;99.90
3281;DHT22;1652;51.31805600;6.20194400;2024-02-26T12:22:45;5.90;99.90
3281;DHT22;1652;51.31805600;6.20194400;2024-02-26T12:25:43;5.90;99.90
3281;DHT22;1652;51.31805600;6.20194400;2024-02-26T12:28:40;5.90;99.90
3281;DHT22;1652;51.31805600;6.20194400;2024-02-26T12:39:51;5.90;99.90
3281;DHT22;1652;51.31805600;6.20194400;2024-02-26T12:42:18;5.90;77.60
3281;DHT22;1652;51.31805600;6.20194400;2024-02-26T12:44:46;5.80;69.80
3281;DHT22;1652;51.31805600;6.20194400;2024-02-26T12:47:13;5.90;20.40
3281;DHT22;1652;51.31805600;6.20194400;2024-02-26T12:49:43;5.80;35.70
3281;DHT22;1652;51.31805600;6.20194400;2024-02-26T12:52:13;5.80;62.10
3281;DHT22;1652;51.31805600;6.20194400;2024-02-26T12:54:40;5.80;72.70
3281;DHT22;1652;51.31805600;6.20194400;2024-02-26T12:57:09;5.80;98.60
3281;DHT22;1652;51.31805600;6.20194400;2024-02-26T12:59:36;5.80;99.90
3281;DHT22;1652;51.31805600;6.20194400;2024-02-26T13:02:04;5.90;99.90
3281;DHT22;1652;51.31805600;6.20194400;2024-02-26T13:04:34;5.90;99.10
3281;DHT22;1652;51.31805600;6.20194400;2024-02-26T13:07:03;5.90;92.40
3281;DHT22;1652;51.31805600;6.20194400;2024-02-26T13:09:35;5.90;99.90
3281;DHT22;1652;51.31805600;6.20194400;2024-02-26T13:12:06;5.80;96.70
3281;DHT22;1652;51.31805600;6.20194400;2024-02-26T13:14:34;5.80;97.70
3281;DHT22;1652;51.31805600;6.20194400;2024-02-26T13:17:04;5.90;99.90
3281;DHT22;1652;51.31805600;6.20194400;2024-02-26T13:19:31;5.90;99.90
3281;DHT22;1652;51.31805600;6.20194400;2024-02-26T13:22:05;6.00;99.90
3281;DHT22;1652;51.31805600;6.20194400;2024-02-26T13:24:34;6.00;99.90
3281;DHT22;1652;51.31805600;6.20194400;2024-02-26T13:27:01;6.00;76.90
3281;DHT22;1652;51.31805600;6.20194400;2024-02-26T13:29:31;5.90;91.20
3281;DHT22;1652;51.31805600;6.20194400;2024-02-26T13:31:58;5.90;99.90
3281;DHT22;1652;51.31805600;6.20194400;2024-02-26T13:34:29;6.00;99.90
3281;DHT22;1652;51.31805600;6.20194400;2024-02-26T13:36:58;6.00;78.80
3281;DHT22;1652;51.31805600;6.20194400;2024-02-26T13:39:26;6.00;99.90
3281;DHT22;1652;51.31805600;6.20194400;2024-02-26T13:41:54;5.90;99.90
3281;DHT22;1652;51.31805600;6.20194400;2024-02-26T13:44:21;5.90;99.90
3281;DHT22;1652;51.31805600;6.20194400;2024-02-26T13:46:48;5.90;92.40
3281;DHT22;1652;51.31805600;6.20194400;2024-02-26T13:49:18;6.00;99.90
3281;DHT22;1652;51.31805600;6.20194400;2024-02-26T13:51:46;6.00;91.80
3281;DHT22;1652;51.31805600;6.20194400;2024-02-26T13:54:12;6.00;81.70
3281;DHT22;1652;51.31805600;6.20194400;2024-02-26T13:56:41;6.00;92.40
3281;DHT22;1652;51.31805600;6.20194400;2024-02-26T13:59:12;6.10;99.90
3281;DHT22;1652;51.31805600;6.20194400;2024-02-26T14:01:39;6.10;99.90
3281;DHT22;1652;51.31805600;6.20194400;2024-02-26T14:04:06;6.10;91.70
3281;DHT22;1652;51.31805600;6.20194400;2024-02-26T14:06:36;6.10;99.90
3281;DHT22;1652;51.31805600;6.20194400;2024-02-26T14:09:03;6.10;99.90
3281;DHT22;1652;51.31805600;6.20194400;2024-02-26T14:11:30;6.10;99.90
3281;DHT22;1652;51.31805600;6.20194400;2024-02-26T14:13:57;6.10;99.50
3281;DHT22;1652;51.31805600;6.20194400;2024-02-26T14:16:24;6.10;87.80
3281;DHT22;1652;51.31805600;6.20194400;2024-02-26T14:18:53;6.20;77.10
3281;DHT22;1652;51.31805600;6.20194400;2024-02-26T14:21:20;6.30;99.90
3281;DHT22;1652;51.31805600;6.20194400;2024-02-26T14:23:47;6.30;49.00
3281;DHT22;1652;51.31805600;6.20194400;2024-02-26T14:26:14;6.30;22.80
3281;DHT22;1652;51.31805600;6.20194400;2024-02-26T14:28:41;6.20;1.00
3281;DHT22;1652;51.31805600;6.20194400;2024-02-26T14:31:08;6.30;18.40
3281;DHT22;1652;51.31805600;6.20194400;2024-02-26T14:33:38;6.30;16.70
3281;DHT22;1652;51.31805600;6.20194400;2024-02-26T14:38:34;6.30;14.40
3281;DHT22;1652;51.31805600;6.20194400;2024-02-26T14:41:02;6.30;1.00
3281;DHT22;1652;51.31805600;6.20194400;2024-02-26T14:43:29;6.30;1.00
3281;DHT22;1652;51.31805600;6.20194400;2024-02-26T14:45:58;6.30;1.00